createdAt,value
2019-04-28T00:01:51.284Z,8.40
2019-04-28T00:04:21.475Z,8.40
2019-04-28T00:06:51.572Z,8.50
2019-04-28T00:09:22.912Z,8.60
2019-04-28T00:11:51.817Z,8.50
2019-04-28T00:14:21.955Z,8.50
2019-04-28T00:16:51.303Z,8.60
2019-04-28T00:19:21.861Z,8.60
2019-04-28T00:21:52.253Z,8.70
2019-04-28T00:24:34.667Z,8.80
2019-04-28T00:27:04.587Z,8.70
2019-04-28T00:29:40.856Z,8.70
2019-04-28T00:32:04.181Z,8.70
2019-04-28T00:34:33.091Z,8.60
2019-04-28T00:37:04.301Z,8.40
2019-04-28T00:39:33.192Z,8.30
2019-04-28T00:42:03.376Z,8.30
2019-04-28T00:44:32.307Z,8.30
2019-04-28T00:47:01.303Z,8.20
2019-04-28T00:49:48.188Z,8.20
2019-04-28T00:52:18.452Z,8.20
2019-04-28T00:54:48.359Z,8.20
2019-04-28T00:57:17.661Z,8.10
2019-04-28T00:59:57.196Z,8.00
2019-04-28T01:02:18.520Z,8.00
2019-04-28T01:04:47.330Z,7.90
2019-04-28T01:07:16.193Z,7.80
2019-04-28T01:09:45.898Z,7.80
2019-04-28T01:12:14.817Z,7.70
2019-04-28T01:14:43.642Z,7.70
2019-04-28T01:17:19.903Z,7.70
2019-04-28T01:19:53.007Z,7.70
2019-04-28T01:22:21.813Z,7.60
2019-04-28T01:24:50.618Z,7.60
2019-04-28T01:27:24.038Z,7.60
2019-04-28T01:30:05.140Z,7.60
2019-04-28T01:32:34.077Z,7.70
2019-04-28T01:35:03.000Z,7.80
2019-04-28T01:37:31.812Z,7.80
2019-04-28T01:40:00.667Z,7.90
2019-04-28T01:42:30.224Z,7.90
2019-04-28T01:45:00.607Z,8.00
2019-04-28T01:47:30.514Z,8.00
2019-04-28T01:50:01.749Z,8.00
2019-04-28T01:52:30.377Z,8.00
2019-04-28T01:55:00.489Z,8.00
2019-04-28T01:57:29.909Z,7.90
2019-04-28T01:59:59.808Z,7.90
2019-04-28T02:02:30.068Z,7.90
2019-04-28T02:04:59.942Z,7.80
2019-04-28T02:07:30.609Z,7.80
2019-04-28T02:10:00.714Z,7.70
2019-04-28T02:12:30.403Z,7.70
2019-04-28T02:15:01.068Z,7.60
2019-04-28T02:17:30.614Z,7.60
2019-04-28T02:20:00.761Z,7.50
2019-04-28T02:22:32.192Z,7.50
2019-04-28T02:25:01.010Z,7.40
2019-04-28T02:27:30.274Z,7.40
2019-04-28T02:30:00.160Z,7.40
2019-04-28T02:32:32.225Z,7.40
2019-04-28T02:35:01.728Z,7.40
2019-04-28T02:37:30.884Z,7.40
2019-04-28T02:40:02.839Z,7.40
2019-04-28T02:42:30.890Z,7.40
2019-04-28T02:45:00.976Z,7.40
2019-04-28T02:47:33.592Z,7.40
2019-04-28T02:50:20.881Z,7.40
2019-04-28T02:52:53.414Z,7.40
2019-04-28T02:55:22.234Z,7.40
2019-04-28T02:57:51.818Z,7.40
2019-04-28T03:00:21.641Z,7.40
2019-04-28T03:02:51.502Z,7.40
2019-04-28T03:05:21.575Z,7.30
2019-04-28T03:07:51.423Z,7.20
2019-04-28T03:10:21.586Z,7.20
2019-04-28T03:12:51.860Z,7.10
2019-04-28T03:15:20.817Z,7.10
2019-04-28T03:17:52.545Z,7.10
2019-04-28T03:20:21.109Z,7.10
2019-04-28T03:22:51.228Z,7.10
2019-04-28T03:25:33.502Z,7.10
2019-04-28T03:28:21.352Z,7.10
2019-04-28T03:31:33.593Z,7.00
2019-04-28T03:33:41.494Z,7.10
2019-04-28T03:36:08.292Z,7.00
2019-04-28T03:38:34.952Z,7.00
2019-04-28T03:41:03.792Z,6.90
2019-04-28T03:43:32.587Z,6.90
2019-04-28T03:46:03.683Z,6.80
2019-04-28T03:48:33.647Z,6.80
2019-04-28T03:51:02.804Z,6.80
2019-04-28T03:53:31.658Z,6.90
2019-04-28T03:56:01.612Z,6.90
2019-04-28T03:58:31.184Z,6.80
2019-04-28T04:01:03.028Z,6.80
2019-04-28T04:03:30.718Z,6.80
2019-04-28T04:06:00.847Z,6.80
2019-04-28T04:08:30.994Z,6.70
2019-04-28T04:11:10.518Z,6.70
2019-04-28T04:13:41.555Z,6.70
2019-04-28T04:16:30.587Z,6.70
2019-04-28T04:19:00.823Z,6.80
2019-04-28T04:21:30.976Z,6.70
2019-04-28T04:24:01.090Z,6.70
2019-04-28T04:26:32.929Z,6.80
2019-04-28T04:29:01.133Z,6.80
2019-04-28T04:31:31.809Z,6.80
2019-04-28T04:34:03.080Z,6.90
2019-04-28T04:36:31.295Z,6.90
2019-04-28T04:39:01.802Z,7.00
2019-04-28T04:41:31.007Z,7.00
2019-04-28T04:44:01.049Z,7.00
2019-04-28T04:46:31.377Z,7.00
2019-04-28T04:49:00.885Z,7.00
2019-04-28T04:51:30.754Z,7.00
2019-04-28T04:54:01.033Z,7.10
2019-04-28T04:56:30.393Z,7.20
2019-04-28T04:59:00.395Z,7.40
2019-04-28T05:01:34.483Z,7.50
2019-04-28T05:04:04.923Z,7.70
2019-04-28T05:06:41.511Z,7.90
2019-04-28T05:09:11.105Z,7.90
2019-04-28T05:11:40.340Z,8.00
2019-04-28T05:14:11.672Z,8.10
2019-04-28T05:16:40.181Z,8.10
2019-04-28T05:19:10.040Z,8.10
2019-04-28T05:21:40.226Z,8.20
2019-04-28T05:24:17.494Z,8.20
2019-04-28T05:26:49.610Z,8.30
2019-04-28T05:29:21.738Z,8.40
2019-04-28T05:31:50.354Z,8.50
2019-04-28T05:34:20.526Z,8.60
2019-04-28T05:36:50.547Z,8.60
2019-04-28T05:39:19.763Z,8.70
2019-04-28T05:41:50.430Z,8.90
2019-04-28T05:44:20.137Z,9.00
2019-04-28T05:46:50.652Z,9.10
2019-04-28T05:49:39.575Z,9.30
2019-04-28T05:52:26.150Z,9.40
2019-04-28T05:55:12.929Z,9.60
2019-04-28T05:57:43.342Z,9.60
2019-04-28T06:00:32.124Z,9.70
2019-04-28T06:03:03.619Z,9.80
2019-04-28T06:05:32.466Z,9.70
2019-04-28T06:08:06.272Z,9.70
2019-04-28T06:10:35.389Z,9.70
2019-04-28T06:13:04.223Z,9.80
2019-04-28T06:15:33.626Z,9.90
2019-04-28T06:18:02.470Z,9.90
2019-04-28T06:20:31.279Z,9.80
2019-04-28T06:23:00.100Z,9.90
2019-04-28T06:25:28.957Z,9.80
2019-04-28T06:27:57.780Z,9.90
2019-04-28T06:30:26.589Z,10.00
2019-04-28T06:33:07.172Z,10.10
2019-04-28T06:35:25.896Z,10.10
2019-04-28T06:37:54.701Z,10.10
2019-04-28T06:40:23.533Z,9.90
2019-04-28T06:42:52.367Z,9.90
2019-04-28T06:45:21.188Z,9.90
2019-04-28T06:47:50.023Z,9.80
2019-04-28T06:50:18.829Z,9.90
2019-04-28T06:52:47.655Z,10.20
2019-04-28T06:55:16.473Z,9.90
2019-04-28T06:57:45.292Z,9.90
2019-04-28T07:00:14.345Z,10.00
2019-04-28T07:02:43.278Z,9.90
2019-04-28T07:05:12.112Z,9.90
2019-04-28T07:07:40.916Z,9.90
2019-04-28T07:10:09.859Z,9.90
2019-04-28T07:12:38.725Z,10.10
2019-04-28T07:15:07.737Z,10.30
2019-04-28T07:17:36.600Z,10.40
2019-04-28T07:20:13.742Z,10.50
2019-04-28T07:22:42.592Z,10.30
2019-04-28T07:25:11.422Z,10.30
2019-04-28T07:27:40.238Z,10.30
2019-04-28T07:30:10.048Z,10.30
2019-04-28T07:32:39.509Z,10.30
2019-04-28T07:35:08.408Z,10.40
2019-04-28T07:37:37.265Z,10.70
2019-04-28T07:40:08.520Z,10.90
2019-04-28T07:42:37.322Z,10.90
2019-04-28T07:45:07.431Z,10.80
2019-04-28T07:47:36.313Z,10.50
2019-04-28T07:50:08.201Z,10.60
2019-04-28T07:52:38.651Z,10.80
2019-04-28T07:55:07.466Z,10.80
2019-04-28T07:57:36.329Z,10.90
2019-04-28T08:00:06.238Z,10.70
2019-04-28T08:02:36.730Z,10.60
2019-04-28T08:05:06.633Z,10.30
2019-04-28T08:07:35.495Z,10.30
2019-04-28T08:10:04.906Z,10.60
2019-04-28T08:12:33.772Z,10.80
2019-04-28T08:15:02.577Z,10.90
2019-04-28T08:17:31.364Z,11.00
2019-04-28T08:20:00.199Z,11.10
2019-04-28T08:22:29.024Z,11.20
2019-04-28T08:24:57.816Z,11.30
2019-04-28T08:27:26.700Z,11.10
2019-04-28T08:29:58.829Z,10.90
2019-04-28T08:32:27.682Z,10.80
2019-04-28T08:34:56.512Z,11.00
2019-04-28T08:37:25.333Z,11.00
2019-04-28T08:39:54.131Z,11.30
2019-04-28T08:42:23.918Z,11.50
2019-04-28T08:44:52.723Z,11.50
2019-04-28T08:47:21.524Z,11.20
2019-04-28T08:49:50.374Z,11.00
2019-04-28T08:52:19.197Z,10.90
2019-04-28T08:54:47.991Z,11.00
2019-04-28T08:57:16.939Z,10.90
2019-04-28T08:59:45.790Z,10.90
2019-04-28T09:02:14.573Z,10.80
2019-04-28T09:04:43.413Z,10.80
2019-04-28T09:07:12.253Z,10.60
2019-04-28T09:09:41.061Z,10.50
2019-04-28T09:12:09.913Z,10.40
2019-04-28T09:14:38.730Z,10.40
2019-04-28T09:17:07.618Z,10.40
2019-04-28T09:19:36.403Z,10.30
2019-04-28T09:22:05.700Z,10.40
2019-04-28T09:24:34.519Z,10.50
2019-04-28T09:27:03.353Z,10.50
2019-04-28T09:29:32.282Z,10.50
2019-04-28T09:32:01.086Z,10.50
2019-04-28T09:34:30.031Z,10.30
2019-04-28T09:36:58.908Z,10.20
2019-04-28T09:39:47.440Z,10.20
2019-04-28T09:42:33.288Z,10.00
2019-04-28T09:45:03.715Z,9.90
2019-04-28T09:47:32.551Z,9.80
2019-04-28T09:50:01.357Z,9.90
2019-04-28T09:52:30.646Z,10.00
2019-04-28T09:54:59.518Z,10.10
2019-04-28T09:57:28.614Z,10.20
2019-04-28T09:59:57.577Z,10.10
2019-04-28T10:02:26.389Z,10.00
2019-04-28T10:04:55.254Z,10.10
2019-04-28T10:07:24.293Z,10.10
2019-04-28T10:09:53.473Z,10.20
2019-04-28T10:12:27.129Z,10.20
2019-04-28T10:14:52.839Z,10.30
2019-04-28T10:17:21.698Z,10.30
2019-04-28T10:19:50.677Z,10.30
2019-04-28T10:22:19.615Z,10.20
2019-04-28T10:24:48.487Z,10.10
2019-04-28T10:27:18.324Z,10.10
2019-04-28T10:29:47.157Z,10.20
2019-04-28T10:32:15.962Z,10.30
2019-04-28T10:34:54.833Z,10.40
2019-04-28T10:37:15.542Z,10.60
2019-04-28T10:39:46.088Z,10.70
2019-04-28T10:42:14.863Z,10.80
2019-04-28T10:44:45.426Z,10.80
2019-04-28T10:47:15.133Z,10.90
2019-04-28T10:49:44.054Z,10.90
2019-04-28T10:52:13.941Z,10.80
2019-04-28T10:54:42.817Z,10.90
2019-04-28T10:57:11.720Z,11.00
2019-04-28T10:59:40.554Z,11.00
2019-04-28T11:02:09.368Z,11.10
2019-04-28T11:04:39.819Z,11.30
2019-04-28T11:07:10.511Z,11.30
2019-04-28T11:09:40.914Z,11.30
2019-04-28T11:12:17.316Z,11.30
2019-04-28T11:14:46.111Z,11.30
2019-04-28T11:17:15.944Z,11.20
2019-04-28T11:19:44.824Z,11.40
2019-04-28T11:22:13.687Z,11.30
2019-04-28T11:24:42.495Z,11.30
2019-04-28T11:27:11.641Z,11.30
2019-04-28T11:29:40.491Z,11.40
2019-04-28T11:32:09.267Z,11.40
2019-04-28T11:34:56.182Z,11.50
2019-04-28T11:37:25.009Z,11.50
2019-04-28T11:39:53.822Z,11.60
2019-04-28T11:42:22.731Z,11.70
2019-04-28T11:44:51.545Z,11.80
2019-04-28T11:47:21.977Z,11.80
2019-04-28T11:49:52.218Z,11.80
2019-04-28T11:52:21.084Z,11.80
2019-04-28T11:54:49.955Z,11.80
2019-04-28T11:57:18.840Z,11.90
2019-04-28T11:59:47.653Z,11.80
2019-04-28T12:02:16.502Z,11.80
2019-04-28T12:04:45.406Z,11.80
2019-04-28T12:07:14.222Z,11.90
2019-04-28T12:09:44.619Z,11.90
2019-04-28T12:12:17.532Z,11.90
2019-04-28T12:14:50.827Z,11.90
2019-04-28T12:17:37.496Z,11.90
2019-04-28T12:20:11.923Z,11.90
2019-04-28T12:22:40.754Z,11.90
2019-04-28T12:25:10.112Z,11.90
2019-04-28T12:27:38.940Z,11.90
2019-04-28T12:30:08.060Z,11.90
2019-04-28T12:32:36.974Z,11.90
2019-04-28T12:35:06.570Z,11.80
2019-04-28T12:37:35.422Z,11.80
2019-04-28T12:40:06.683Z,11.90
2019-04-28T12:42:35.625Z,12.00
2019-04-28T12:45:06.536Z,12.00
2019-04-28T12:47:35.401Z,12.10
2019-04-28T12:50:07.697Z,12.10
2019-04-28T12:52:36.547Z,11.90
2019-04-28T12:55:07.034Z,11.80
2019-04-28T12:57:35.992Z,11.70
2019-04-28T13:00:23.239Z,11.70
2019-04-28T13:02:53.784Z,11.80
2019-04-28T13:05:22.981Z,12.00
2019-04-28T13:07:51.838Z,12.10
2019-04-28T13:10:20.721Z,12.10
2019-04-28T13:12:49.763Z,12.20
2019-04-28T13:15:19.455Z,12.20
2019-04-28T13:17:48.289Z,12.20
2019-04-28T13:20:17.494Z,12.00
2019-04-28T13:22:46.569Z,11.90
2019-04-28T13:25:15.482Z,11.90
2019-04-28T13:27:44.493Z,11.90
2019-04-28T13:30:13.599Z,11.90
2019-04-28T13:32:42.430Z,11.90
2019-04-28T13:35:11.456Z,12.00
2019-04-28T13:37:42.884Z,11.90
2019-04-28T13:40:16.230Z,12.00
2019-04-28T13:42:45.057Z,12.00
2019-04-28T13:45:15.566Z,12.00
2019-04-28T13:47:44.401Z,12.10
2019-04-28T13:50:18.518Z,12.10
2019-04-28T13:52:47.553Z,12.10
2019-04-28T13:55:30.639Z,12.00
2019-04-28T13:58:04.052Z,11.90
2019-04-28T14:00:50.805Z,12.00
2019-04-28T14:03:24.225Z,11.90
2019-04-28T14:05:54.623Z,11.90
2019-04-28T14:08:23.503Z,12.00
2019-04-28T14:10:52.397Z,12.10
2019-04-28T14:13:21.243Z,12.10
2019-04-28T14:15:50.052Z,12.10
2019-04-28T14:18:18.982Z,12.10
2019-04-28T14:20:47.822Z,12.20
2019-04-28T14:23:16.618Z,12.10
2019-04-28T14:25:58.448Z,12.20
2019-04-28T14:28:24.732Z,12.20
2019-04-28T14:30:53.515Z,12.20
2019-04-28T14:33:22.492Z,12.20
2019-04-28T14:35:51.296Z,12.20
2019-04-28T14:38:20.111Z,12.30
2019-04-28T14:40:48.987Z,12.30
2019-04-28T14:43:17.970Z,12.40
2019-04-28T14:45:46.791Z,12.30
2019-04-28T14:48:15.639Z,12.30
2019-04-28T14:50:44.528Z,12.30
2019-04-28T14:53:13.378Z,12.30
2019-04-28T14:55:43.235Z,12.40
2019-04-28T14:58:12.270Z,12.40
2019-04-28T15:00:49.066Z,12.30
2019-04-28T15:03:19.310Z,12.40
2019-04-28T15:05:52.498Z,12.50
2019-04-28T15:08:22.950Z,12.60
2019-04-28T15:10:56.447Z,12.60
2019-04-28T15:13:26.158Z,12.70
2019-04-28T15:15:55.007Z,12.60
2019-04-28T15:18:23.889Z,12.60
2019-04-28T15:20:52.752Z,12.60
2019-04-28T15:23:21.676Z,12.60
2019-04-28T15:25:50.510Z,12.70
2019-04-28T15:28:20.717Z,12.70
2019-04-28T15:30:49.706Z,12.70
2019-04-28T15:33:18.601Z,12.60
2019-04-28T15:35:47.438Z,12.70
2019-04-28T15:38:16.268Z,12.60
2019-04-28T15:40:45.221Z,12.70
2019-04-28T15:43:14.017Z,12.60
2019-04-28T15:45:43.256Z,12.60
2019-04-28T15:48:12.104Z,12.60
2019-04-28T15:50:40.973Z,12.70
2019-04-28T15:53:09.907Z,12.80
2019-04-28T15:55:40.287Z,12.90
2019-04-28T15:58:26.886Z,12.90
2019-04-28T16:00:55.710Z,12.90
2019-04-28T16:03:25.465Z,13.10
2019-04-28T16:05:54.314Z,13.30
2019-04-28T16:08:23.161Z,13.40
2019-04-28T16:10:52.253Z,13.60
2019-04-28T16:13:21.221Z,13.70
2019-04-28T16:15:50.020Z,13.80
2019-04-28T16:18:18.871Z,14.00
2019-04-28T16:20:47.746Z,13.90
2019-04-28T16:23:16.587Z,14.20
2019-04-28T16:25:45.435Z,14.10
2019-04-28T16:28:14.297Z,14.10
2019-04-28T16:30:43.466Z,14.20
2019-04-28T16:33:12.282Z,14.20
2019-04-28T16:35:41.216Z,14.20
2019-04-28T16:38:12.886Z,14.10
2019-04-28T16:40:43.662Z,14.10
2019-04-28T16:43:14.190Z,14.20
2019-04-28T16:45:43.045Z,14.10
2019-04-28T16:48:11.867Z,14.20
2019-04-28T16:50:40.708Z,14.20
2019-04-28T16:53:09.819Z,14.20
2019-04-28T16:55:40.531Z,14.10
2019-04-28T16:58:22.818Z,14.10
2019-04-28T17:00:54.881Z,14.00
2019-04-28T17:03:23.966Z,14.10
2019-04-28T17:05:52.950Z,14.40
2019-04-28T17:08:21.859Z,14.40
2019-04-28T17:10:50.739Z,14.30
2019-04-28T17:13:19.663Z,14.40
2019-04-28T17:15:48.537Z,14.40
2019-04-28T17:18:17.487Z,14.50
2019-04-28T17:20:46.399Z,14.70
2019-04-28T17:23:15.307Z,14.60
2019-04-28T17:25:44.192Z,14.50
2019-04-28T17:28:13.143Z,14.50
2019-04-28T17:30:42.056Z,14.30
2019-04-28T17:33:10.846Z,14.10
2019-04-28T17:35:39.747Z,13.90
2019-04-28T17:38:08.632Z,13.90
2019-04-28T17:40:38.343Z,13.90
2019-04-28T17:43:08.353Z,14.00
2019-04-28T17:45:37.193Z,13.80
2019-04-28T17:48:13.954Z,13.60
2019-04-28T17:50:45.246Z,13.50
2019-04-28T17:53:13.338Z,13.60
2019-04-28T17:55:49.211Z,13.80
2019-04-28T17:58:17.473Z,13.50
2019-04-28T18:00:56.606Z,13.40
2019-04-28T18:03:39.904Z,13.30
2019-04-28T18:06:18.166Z,13.10
2019-04-28T18:08:46.523Z,12.80
2019-04-28T18:11:15.390Z,12.60
2019-04-28T18:13:44.569Z,12.40
2019-04-28T18:16:17.841Z,12.20
2019-04-28T18:18:57.272Z,12.20
2019-04-28T18:21:26.080Z,12.00
2019-04-28T18:23:54.927Z,11.90
2019-04-28T18:26:23.753Z,11.70
2019-04-28T18:28:52.575Z,11.60
2019-04-28T18:31:50.068Z,11.60
2019-04-28T18:34:20.487Z,11.50
2019-04-28T18:36:53.858Z,11.50
2019-04-28T18:39:43.984Z,11.40
2019-04-28T18:42:23.367Z,11.30
2019-04-28T18:44:52.205Z,11.20
2019-04-28T18:47:21.025Z,11.10
2019-04-28T18:49:49.838Z,11.00
2019-04-28T18:52:18.666Z,11.00
2019-04-28T18:54:47.611Z,11.00
2019-04-28T18:57:17.350Z,11.00
2019-04-28T18:59:46.519Z,11.00
2019-04-28T19:02:19.866Z,11.00
2019-04-28T19:04:48.912Z,10.80
2019-04-28T19:07:19.290Z,10.80
2019-04-28T19:09:55.210Z,10.70
2019-04-28T19:12:27.440Z,10.60
2019-04-28T19:14:57.831Z,10.50
2019-04-28T19:17:40.458Z,10.50
2019-04-28T19:20:09.464Z,10.50
2019-04-28T19:22:39.992Z,10.60
2019-04-28T19:25:08.940Z,10.60
2019-04-28T19:27:37.831Z,10.60
2019-04-28T19:30:07.093Z,10.60
2019-04-28T19:32:36.840Z,10.60
2019-04-28T19:35:07.184Z,10.50
2019-04-28T19:37:36.053Z,10.50
2019-04-28T19:40:06.809Z,10.50
2019-04-28T19:42:35.811Z,10.50
2019-04-28T19:45:07.139Z,10.60
2019-04-28T19:47:35.978Z,10.60
2019-04-28T19:50:06.913Z,10.60
2019-04-28T19:52:39.756Z,10.60
2019-04-28T19:55:18.995Z,10.60
2019-04-28T19:58:05.645Z,10.60
2019-04-28T20:00:52.187Z,10.50
2019-04-28T20:03:21.053Z,10.50
2019-04-28T20:05:49.889Z,10.50
2019-04-28T20:08:20.323Z,10.40
2019-04-28T20:10:49.242Z,10.50
2019-04-28T20:13:18.073Z,10.40
2019-04-28T20:15:46.954Z,10.50
2019-04-28T20:18:15.780Z,10.40
2019-04-28T20:20:44.605Z,10.40
2019-04-28T20:23:13.434Z,10.50
2019-04-28T20:25:42.335Z,10.40
2019-04-28T20:28:11.154Z,10.40
2019-04-28T20:30:39.993Z,10.20
2019-04-28T20:33:10.335Z,10.10
2019-04-28T20:35:43.727Z,9.90
2019-04-28T20:38:16.942Z,9.90
2019-04-28T20:40:51.038Z,9.80
2019-04-28T20:43:21.702Z,9.80
2019-04-28T20:45:50.529Z,9.70
2019-04-28T20:48:19.369Z,9.60
2019-04-28T20:50:48.201Z,9.60
2019-04-28T20:53:19.335Z,9.60
2019-04-28T20:55:47.586Z,9.50
2019-04-28T20:58:16.626Z,9.40
2019-04-28T21:00:46.143Z,9.40
2019-04-28T21:03:15.077Z,9.30
2019-04-28T21:05:43.918Z,9.20
2019-04-28T21:08:12.746Z,9.20
2019-04-28T21:10:41.590Z,9.20
2019-04-28T21:13:10.407Z,9.10
2019-04-28T21:15:39.249Z,9.10
2019-04-28T21:18:08.032Z,9.10
2019-04-28T21:20:36.891Z,9.20
2019-04-28T21:23:05.684Z,9.20
2019-04-28T21:25:34.610Z,9.10
2019-04-28T21:28:03.458Z,9.10
2019-04-28T21:30:32.315Z,9.00
2019-04-28T21:33:01.127Z,9.10
2019-04-28T21:35:29.966Z,9.00
2019-04-28T21:37:58.757Z,9.10
2019-04-28T21:40:28.107Z,9.10
2019-04-28T21:43:13.481Z,9.10
2019-04-28T21:46:02.682Z,9.10
2019-04-28T21:48:33.061Z,9.00
2019-04-28T21:51:02.215Z,8.90
2019-04-28T21:53:31.103Z,8.80
2019-04-28T21:55:59.874Z,8.80
2019-04-28T21:58:33.460Z,8.70
2019-04-28T22:00:59.971Z,8.60
2019-04-28T22:03:28.916Z,8.70
2019-04-28T22:05:57.904Z,8.70
2019-04-28T22:08:26.725Z,8.70
2019-04-28T22:10:55.554Z,8.70
2019-04-28T22:13:24.481Z,8.80
2019-04-28T22:15:53.291Z,8.90
2019-04-28T22:18:22.279Z,8.90
2019-04-28T22:20:51.133Z,8.80
2019-04-28T22:23:24.308Z,8.90
2019-04-28T22:25:53.362Z,9.00
2019-04-28T22:28:23.858Z,9.00
2019-04-28T22:30:52.845Z,9.00
2019-04-28T22:33:21.734Z,9.10
2019-04-28T22:35:50.736Z,9.20
2019-04-28T22:38:19.589Z,9.20
2019-04-28T22:40:48.433Z,9.30
2019-04-28T22:43:17.237Z,9.30
2019-04-28T22:45:46.109Z,9.30
2019-04-28T22:48:18.201Z,9.30
2019-04-28T22:50:47.907Z,9.30
2019-04-28T22:53:18.451Z,9.20
2019-04-28T22:56:01.172Z,9.20
2019-04-28T22:58:43.995Z,9.00
2019-04-28T23:01:17.551Z,9.00
2019-04-28T23:03:54.103Z,9.00
2019-04-28T23:06:23.633Z,9.10
2019-04-28T23:08:52.607Z,9.10
2019-04-28T23:11:23.631Z,9.10
2019-04-28T23:13:52.525Z,9.10
2019-04-28T23:16:21.618Z,9.10
2019-04-28T23:18:50.675Z,9.20
2019-04-28T23:21:24.151Z,9.20
2019-04-28T23:23:52.978Z,9.20
2019-04-28T23:26:21.770Z,9.20
2019-04-28T23:28:50.601Z,9.20
2019-04-28T23:31:19.468Z,9.30
2019-04-28T23:33:48.259Z,9.30
2019-04-28T23:36:17.088Z,9.40
2019-04-28T23:38:45.898Z,9.40
2019-04-28T23:41:28.039Z,9.40
2019-04-28T23:43:56.829Z,9.40
2019-04-28T23:46:28.799Z,9.40
2019-04-28T23:48:57.654Z,9.40
2019-04-28T23:51:46.128Z,9.30
2019-04-28T23:54:14.964Z,9.20
2019-04-28T23:56:43.769Z,9.30
2019-04-28T23:59:12.595Z,9.30
